createdAt,value
2022-10-02T00:01:42.799Z,3.97
2022-10-02T00:04:15.524Z,6.10
2022-10-02T00:06:48.507Z,5.63
2022-10-02T00:09:24.554Z,4.43
2022-10-02T00:11:59.024Z,5.63
2022-10-02T00:14:31.353Z,7.20
2022-10-02T00:17:02.569Z,7.07
2022-10-02T00:19:30.794Z,9.03
2022-10-02T00:22:12.707Z,9.13
2022-10-02T00:24:48.904Z,7.10
2022-10-02T00:27:47.200Z,10.77
2022-10-02T00:30:19.111Z,7.37
2022-10-02T00:33:01.070Z,10.23
2022-10-02T00:36:00.653Z,7.60
2022-10-02T00:38:45.482Z,13.60
2022-10-02T00:41:27.022Z,7.33
2022-10-02T00:44:08.522Z,8.63
2022-10-02T00:46:47.273Z,9.10
2022-10-02T00:49:43.812Z,9.77
2022-10-02T00:52:29.253Z,10.77
2022-10-02T00:55:20.586Z,10.77
2022-10-02T00:58:04.094Z,9.13
2022-10-02T01:00:32.873Z,8.40
2022-10-02T01:03:15.732Z,10.53
2022-10-02T01:05:45.493Z,11.33
2022-10-02T01:08:14.746Z,11.47
2022-10-02T01:10:43.905Z,9.47
2022-10-02T01:13:12.398Z,9.50
2022-10-02T01:15:45.391Z,9.80
2022-10-02T01:18:15.817Z,10.63
2022-10-02T01:20:48.403Z,9.33
2022-10-02T01:23:28.958Z,9.93
2022-10-02T01:25:59.452Z,11.30
2022-10-02T01:28:28.666Z,12.10
2022-10-02T01:31:02.474Z,9.57
2022-10-02T01:33:31.723Z,11.37
2022-10-02T01:36:00.184Z,9.93
2022-10-02T01:38:29.441Z,10.63
2022-10-02T01:40:59.069Z,10.97
2022-10-02T01:43:32.273Z,15.23
2022-10-02T01:46:11.910Z,11.23
2022-10-02T01:48:46.646Z,15.50
2022-10-02T01:51:28.557Z,13.30
2022-10-02T01:54:07.900Z,10.07
2022-10-02T01:56:45.465Z,12.53
2022-10-02T01:59:24.254Z,12.67
2022-10-02T02:02:04.737Z,15.53
2022-10-02T02:04:43.422Z,13.13
2022-10-02T02:07:16.553Z,15.53
2022-10-02T02:09:55.533Z,17.60
2022-10-02T02:12:33.289Z,12.40
2022-10-02T02:15:05.455Z,17.43
2022-10-02T02:17:39.045Z,15.77
2022-10-02T02:20:10.688Z,12.37
2022-10-02T02:22:44.661Z,19.40
2022-10-02T02:25:17.929Z,14.23
2022-10-02T02:27:51.110Z,16.47
2022-10-02T02:30:20.751Z,14.83
2022-10-02T02:32:53.375Z,16.33
2022-10-02T02:35:26.667Z,16.37
2022-10-02T02:38:01.224Z,15.50
2022-10-02T02:40:33.474Z,16.43
2022-10-02T02:43:08.889Z,12.03
2022-10-02T02:45:43.159Z,21.37
2022-10-02T02:48:18.948Z,16.40
2022-10-02T02:50:51.737Z,14.30
2022-10-02T02:53:24.421Z,16.30
2022-10-02T02:55:56.774Z,16.73
2022-10-02T02:58:30.905Z,15.27
2022-10-02T03:00:59.482Z,16.17
2022-10-02T03:03:27.800Z,18.90
2022-10-02T03:06:03.809Z,16.73
2022-10-02T03:08:36.410Z,21.00
2022-10-02T03:11:11.186Z,21.07
2022-10-02T03:13:55.722Z,19.30
2022-10-02T03:16:36.367Z,19.40
2022-10-02T03:19:16.997Z,18.40
2022-10-02T03:21:55.847Z,21.27
2022-10-02T03:24:31.873Z,20.20
2022-10-02T03:27:06.845Z,22.73
2022-10-02T03:29:44.009Z,21.27
2022-10-02T03:32:14.803Z,25.83
2022-10-02T03:34:43.139Z,18.30
2022-10-02T03:37:11.688Z,19.00
2022-10-02T03:39:44.191Z,18.37
2022-10-02T03:42:14.690Z,17.00
2022-10-02T03:44:44.993Z,21.27
2022-10-02T03:47:13.226Z,18.63
2022-10-02T03:49:41.745Z,24.03
2022-10-02T03:52:16.745Z,20.47
2022-10-02T03:54:45.485Z,17.33
2022-10-02T03:57:19.170Z,16.40
2022-10-02T03:59:54.932Z,14.67
2022-10-02T04:02:33.409Z,16.63
2022-10-02T04:05:10.903Z,13.60
2022-10-02T04:07:43.299Z,16.53
2022-10-02T04:10:30.340Z,17.43
2022-10-02T04:13:05.295Z,13.13
2022-10-02T04:15:50.436Z,11.83
2022-10-02T04:18:23.587Z,13.67
2022-10-02T04:20:56.125Z,13.20
2022-10-02T04:23:29.613Z,14.40
2022-10-02T04:26:04.341Z,13.67
2022-10-02T04:28:39.959Z,14.10
2022-10-02T04:31:15.899Z,10.57
2022-10-02T04:33:44.200Z,14.00
2022-10-02T04:36:28.524Z,12.13
2022-10-02T04:39:10.954Z,9.20
2022-10-02T04:41:54.486Z,7.33
2022-10-02T04:44:37.172Z,9.50
2022-10-02T04:47:29.738Z,8.30
2022-10-02T04:50:21.981Z,6.97
2022-10-02T04:53:12.379Z,6.67
2022-10-02T04:56:01.289Z,6.90
2022-10-02T04:58:47.131Z,8.40
2022-10-02T05:01:27.087Z,9.73
2022-10-02T05:04:18.649Z,8.17
2022-10-02T05:07:07.773Z,8.17
2022-10-02T05:09:44.073Z,8.57
2022-10-02T05:12:36.189Z,7.50
2022-10-02T05:15:29.493Z,9.50
2022-10-02T05:18:41.797Z,7.50
2022-10-02T05:21:26.960Z,11.57
2022-10-02T05:24:14.749Z,11.70
2022-10-02T05:27:18.342Z,8.07
2022-10-02T05:30:05.887Z,9.60
2022-10-02T05:33:08.353Z,6.90
2022-10-02T05:35:51.909Z,8.70
2022-10-02T05:38:40.240Z,8.73
2022-10-02T05:41:15.062Z,7.27
2022-10-02T05:43:49.978Z,8.93
2022-10-02T05:46:31.842Z,11.53
2022-10-02T05:49:39.486Z,13.03
2022-10-02T05:52:20.030Z,7.87
2022-10-02T05:55:33.109Z,8.73
2022-10-02T05:58:39.300Z,9.37
2022-10-02T06:01:18.059Z,11.93
2022-10-02T06:03:59.508Z,9.60
2022-10-02T06:07:14.206Z,9.97
2022-10-02T06:10:28.926Z,12.57
2022-10-02T06:13:06.867Z,10.37
2022-10-02T06:16:00.289Z,12.17
2022-10-02T06:19:19.507Z,8.10
2022-10-02T06:22:18.560Z,9.83
2022-10-02T06:28:09.481Z,11.00
2022-10-02T06:30:50.282Z,10.50
2022-10-02T06:33:34.922Z,10.63
2022-10-02T06:36:50.770Z,10.13
2022-10-02T06:39:51.112Z,12.30
2022-10-02T06:43:08.318Z,12.93
2022-10-02T06:46:10.481Z,9.20
2022-10-02T06:48:52.885Z,11.83
2022-10-02T06:51:35.161Z,11.00
2022-10-02T06:54:30.989Z,13.33
2022-10-02T06:57:13.446Z,9.60
2022-10-02T07:00:04.477Z,8.43
2022-10-02T07:02:54.612Z,10.20
2022-10-02T07:05:54.371Z,8.80
2022-10-02T07:08:37.458Z,10.33
2022-10-02T07:11:13.296Z,10.97
2022-10-02T07:13:54.566Z,10.87
2022-10-02T07:16:33.201Z,9.93
2022-10-02T07:19:20.951Z,9.73
2022-10-02T07:21:56.763Z,12.07
2022-10-02T07:24:41.879Z,9.33
2022-10-02T07:27:18.096Z,8.87
2022-10-02T07:29:54.663Z,11.47
2022-10-02T07:32:42.897Z,7.83
2022-10-02T07:35:26.421Z,7.63
2022-10-02T07:38:07.975Z,10.10
2022-10-02T07:40:49.009Z,9.47
2022-10-02T07:43:33.345Z,10.20
2022-10-02T07:46:10.683Z,9.63
2022-10-02T07:49:30.591Z,8.67
2022-10-02T07:52:07.409Z,10.23
2022-10-02T07:54:45.641Z,11.17
2022-10-02T07:57:30.176Z,13.37
2022-10-02T08:00:08.535Z,11.90
2022-10-02T08:03:04.707Z,8.70
2022-10-02T08:05:39.298Z,11.60
2022-10-02T08:08:17.546Z,13.73
2022-10-02T08:10:50.514Z,14.33
2022-10-02T08:13:22.592Z,11.80
2022-10-02T08:15:56.058Z,13.23
2022-10-02T08:18:34.737Z,13.37
2022-10-02T08:21:06.431Z,12.20
2022-10-02T08:23:42.041Z,11.60
2022-10-02T08:26:15.564Z,14.20
2022-10-02T08:28:50.493Z,12.23
2022-10-02T08:31:19.672Z,12.33
2022-10-02T08:33:49.851Z,10.53
2022-10-02T08:36:35.058Z,11.97
2022-10-02T08:39:31.690Z,12.77
2022-10-02T08:42:38.733Z,11.57
2022-10-02T08:45:36.889Z,11.77
2022-10-02T08:48:54.964Z,13.63
2022-10-02T08:52:02.051Z,11.57
2022-10-02T08:54:56.245Z,11.33
2022-10-02T08:58:00.162Z,13.37
2022-10-02T09:00:33.658Z,12.57
2022-10-02T09:03:45.753Z,11.07
2022-10-02T09:06:57.427Z,12.63
2022-10-02T09:10:01.642Z,12.13
2022-10-02T09:13:19.667Z,12.43
2022-10-02T09:15:52.254Z,10.90
2022-10-02T09:18:38.450Z,12.97
2022-10-02T09:21:17.784Z,9.40
2022-10-02T09:24:18.664Z,11.50
2022-10-02T09:27:18.468Z,11.63
2022-10-02T09:30:15.302Z,9.90
2022-10-02T09:33:16.280Z,10.70
2022-10-02T09:36:26.659Z,8.83
2022-10-02T09:39:36.672Z,10.73
2022-10-02T09:42:53.768Z,10.03
2022-10-02T09:45:55.178Z,12.40
2022-10-02T09:48:59.359Z,9.40
2022-10-02T09:52:19.108Z,10.70
2022-10-02T09:55:36.693Z,10.97
2022-10-02T09:58:44.018Z,10.27
2022-10-02T10:01:41.215Z,9.93
2022-10-02T10:05:04.563Z,8.53
2022-10-02T10:08:01.434Z,11.57
2022-10-02T10:10:55.014Z,11.70
2022-10-02T10:13:44.313Z,9.77
2022-10-02T10:16:55.173Z,7.47
2022-10-02T10:19:45.301Z,7.50
2022-10-02T10:22:45.242Z,7.10
2022-10-02T10:25:37.302Z,8.80
2022-10-02T10:28:38.033Z,8.87
2022-10-02T10:31:47.534Z,9.13
2022-10-02T10:34:52.337Z,8.43
2022-10-02T10:38:08.867Z,6.50
2022-10-02T10:40:47.923Z,8.13
2022-10-02T10:43:47.736Z,7.40
2022-10-02T10:46:39.138Z,7.57
2022-10-02T10:49:55.392Z,6.60
2022-10-02T10:52:45.847Z,4.97
2022-10-02T10:55:20.362Z,9.23
2022-10-02T10:58:15.936Z,8.03
2022-10-02T11:01:02.465Z,9.40
2022-10-02T11:04:00.426Z,8.97
2022-10-02T11:06:51.508Z,6.63
2022-10-02T11:09:50.586Z,7.10
2022-10-02T11:12:52.202Z,7.33
2022-10-02T11:15:41.267Z,8.27
2022-10-02T11:18:36.148Z,10.53
2022-10-02T11:21:23.715Z,7.00
2022-10-02T11:24:23.369Z,9.60
2022-10-02T11:27:08.812Z,8.97
2022-10-02T11:30:13.298Z,8.63
2022-10-02T11:33:11.796Z,8.83
2022-10-02T11:35:57.845Z,8.43
2022-10-02T11:38:43.559Z,9.33
2022-10-02T11:41:28.744Z,6.80
2022-10-02T11:44:16.267Z,9.20
2022-10-02T11:47:10.441Z,11.07
2022-10-02T11:50:26.046Z,8.17
2022-10-02T11:53:12.733Z,6.80
2022-10-02T11:55:54.654Z,9.43
2022-10-02T11:58:42.037Z,8.23
2022-10-02T12:01:21.147Z,9.73
2022-10-02T12:03:58.511Z,10.27
2022-10-02T12:06:47.631Z,10.17
2022-10-02T12:09:28.173Z,9.30
2022-10-02T12:12:07.530Z,9.83
2022-10-02T12:14:43.880Z,9.40
2022-10-02T12:17:43.030Z,10.50
2022-10-02T12:20:40.052Z,7.93
2022-10-02T12:23:39.619Z,9.23
2022-10-02T12:26:36.036Z,8.10
2022-10-02T12:29:11.849Z,8.90
2022-10-02T12:31:51.593Z,10.30
2022-10-02T12:34:38.340Z,9.20
2022-10-02T12:37:14.174Z,8.40
2022-10-02T12:39:51.593Z,9.10
2022-10-02T12:42:53.090Z,9.07
2022-10-02T12:45:46.582Z,10.07
2022-10-02T12:52:27.732Z,8.53
2022-10-02T12:55:49.778Z,11.70
2022-10-02T12:58:27.532Z,10.13
2022-10-02T13:01:30.849Z,11.30
2022-10-02T13:04:39.249Z,10.67
2022-10-02T13:08:00.472Z,11.33
2022-10-02T13:10:45.219Z,10.60
2022-10-02T13:13:28.196Z,8.07
2022-10-02T13:16:06.074Z,13.80
2022-10-02T13:18:50.486Z,6.20
2022-10-02T13:21:26.809Z,8.07
2022-10-02T13:24:11.307Z,9.97
2022-10-02T13:26:52.602Z,9.33
2022-10-02T13:29:33.146Z,8.00
2022-10-02T13:32:28.017Z,8.70
2022-10-02T13:35:26.006Z,13.00
2022-10-02T13:38:06.792Z,10.57
2022-10-02T13:40:51.740Z,7.57
2022-10-02T13:43:42.826Z,9.07
2022-10-02T13:46:24.726Z,8.30
2022-10-02T13:49:44.844Z,6.33
2022-10-02T13:52:25.056Z,6.63
2022-10-02T13:55:06.075Z,6.53
2022-10-02T13:58:00.219Z,7.87
2022-10-02T14:00:55.183Z,9.33
2022-10-02T14:03:36.378Z,6.37
2022-10-02T14:06:13.402Z,8.30
2022-10-02T14:08:59.770Z,6.03
2022-10-02T14:11:43.418Z,5.43
2022-10-02T14:14:28.450Z,8.03
2022-10-02T14:17:04.618Z,7.73
2022-10-02T14:19:56.490Z,6.23
2022-10-02T14:22:36.945Z,7.17
2022-10-02T14:25:26.487Z,7.97
2022-10-02T14:28:26.487Z,3.13
2022-10-02T14:31:19.415Z,7.47
2022-10-02T14:34:16.564Z,6.60
2022-10-02T14:36:57.171Z,5.57
2022-10-02T14:39:35.815Z,5.00
2022-10-02T14:42:23.777Z,4.90
2022-10-02T14:45:23.643Z,5.93
2022-10-02T14:48:15.674Z,4.97
2022-10-02T14:51:13.763Z,6.47
2022-10-02T14:53:58.967Z,5.63
2022-10-02T14:56:53.955Z,7.40
2022-10-02T14:59:56.276Z,7.33
2022-10-02T15:02:47.456Z,5.00
2022-10-02T15:05:46.510Z,7.03
2022-10-02T15:08:20.083Z,7.50
2022-10-02T15:10:50.659Z,4.70
2022-10-02T15:13:28.648Z,6.13
2022-10-02T15:16:20.840Z,4.47
2022-10-02T15:18:57.453Z,4.20
2022-10-02T15:21:32.319Z,4.10
2022-10-02T15:24:22.743Z,3.73
2022-10-02T15:26:54.883Z,5.50
2022-10-02T15:29:44.610Z,3.40
2022-10-02T15:32:34.720Z,4.03
2022-10-02T15:35:32.737Z,4.10
2022-10-02T15:38:43.694Z,3.97
2022-10-02T15:41:33.224Z,8.93
2022-10-02T15:44:09.738Z,4.97
2022-10-02T15:46:54.165Z,5.03
2022-10-02T15:50:12.880Z,4.23
2022-10-02T15:52:55.225Z,5.40
2022-10-02T15:55:36.225Z,6.30
2022-10-02T15:58:24.472Z,4.10
2022-10-02T16:01:22.197Z,7.70
2022-10-02T16:03:54.132Z,8.37
2022-10-02T16:06:43.231Z,6.30
2022-10-02T16:09:29.976Z,6.40
2022-10-02T16:12:31.914Z,8.17
2022-10-02T16:15:14.277Z,5.47
2022-10-02T16:18:22.951Z,5.27
2022-10-02T16:21:21.378Z,5.03
2022-10-02T16:24:08.992Z,7.77
2022-10-02T16:27:00.118Z,7.97
2022-10-02T16:29:35.235Z,6.37
2022-10-02T16:32:17.117Z,6.27
2022-10-02T16:35:17.741Z,6.67
2022-10-02T16:37:47.742Z,6.70
2022-10-02T16:40:31.800Z,7.03
2022-10-02T16:43:38.155Z,7.77
2022-10-02T16:46:12.171Z,8.57
2022-10-02T16:49:33.709Z,6.33
2022-10-02T16:52:11.035Z,7.33
2022-10-02T16:54:46.289Z,7.20
2022-10-02T16:57:26.480Z,9.13
2022-10-02T17:00:03.734Z,5.50
2022-10-02T17:02:44.064Z,8.37
2022-10-02T17:05:26.101Z,8.27
2022-10-02T17:08:00.050Z,6.53
2022-10-02T17:10:42.467Z,5.60
2022-10-02T17:13:27.746Z,7.97
2022-10-02T17:16:00.833Z,6.73
2022-10-02T17:18:39.757Z,7.43
2022-10-02T17:21:18.508Z,5.70
2022-10-02T17:24:16.598Z,4.97
2022-10-02T17:26:51.275Z,8.53
2022-10-02T17:29:27.762Z,8.70
2022-10-02T17:31:58.568Z,8.67
2022-10-02T17:34:32.262Z,7.03
2022-10-02T17:37:57.062Z,8.17
2022-10-02T17:40:32.830Z,6.67
2022-10-02T17:43:10.084Z,8.83
2022-10-02T17:45:54.949Z,9.00
2022-10-02T17:48:34.666Z,7.27
2022-10-02T17:51:51.839Z,6.97
2022-10-02T17:54:54.094Z,6.43
2022-10-02T17:57:37.917Z,10.83
2022-10-02T18:00:20.595Z,11.03
2022-10-02T18:03:22.157Z,8.53
2022-10-02T18:05:58.764Z,8.03
2022-10-02T18:08:53.825Z,9.63
2022-10-02T18:11:35.071Z,10.97
2022-10-02T18:14:12.165Z,9.17
2022-10-02T18:16:55.104Z,11.90
2022-10-02T18:19:29.164Z,10.67
2022-10-02T18:22:17.189Z,7.80
2022-10-02T18:25:03.799Z,10.60
2022-10-02T18:27:49.773Z,8.67
2022-10-02T18:30:21.673Z,13.03
2022-10-02T18:33:14.431Z,13.30
2022-10-02T18:35:53.516Z,8.23
2022-10-02T18:38:30.933Z,16.23
2022-10-02T18:41:19.630Z,17.10
2022-10-02T18:44:14.984Z,14.07
2022-10-02T18:46:55.327Z,13.10
2022-10-02T18:49:57.722Z,13.03
2022-10-02T18:52:48.268Z,14.03
2022-10-02T18:55:40.997Z,12.27
2022-10-02T18:58:24.094Z,10.70
2022-10-02T19:01:05.665Z,11.77
2022-10-02T19:03:48.855Z,11.10
2022-10-02T19:06:24.506Z,10.17
2022-10-02T19:09:06.313Z,8.70
2022-10-02T19:11:37.366Z,13.17
2022-10-02T19:14:23.778Z,11.27
2022-10-02T19:17:02.197Z,8.53
2022-10-02T19:19:32.845Z,12.50
2022-10-02T19:22:10.278Z,10.43
2022-10-02T19:24:41.467Z,10.67
2022-10-02T19:27:23.202Z,12.87
2022-10-02T19:29:56.298Z,10.17
2022-10-02T19:32:39.806Z,10.97
2022-10-02T19:35:26.345Z,9.27
2022-10-02T19:38:09.719Z,10.37
2022-10-02T19:40:38.554Z,9.73
2022-10-02T19:43:11.163Z,14.07
2022-10-02T19:45:57.028Z,10.57
2022-10-02T19:48:28.297Z,13.17
2022-10-02T19:51:00.185Z,13.53
2022-10-02T19:53:34.119Z,9.70
2022-10-02T19:56:07.548Z,9.77
2022-10-02T19:58:40.786Z,10.07
2022-10-02T20:01:20.509Z,9.37
2022-10-02T20:03:53.917Z,7.97
2022-10-02T20:06:24.676Z,11.70
2022-10-02T20:09:05.295Z,11.57
2022-10-02T20:11:40.677Z,11.53
2022-10-02T20:14:13.915Z,7.93
2022-10-02T20:17:01.424Z,7.63
2022-10-02T20:19:34.303Z,15.70
2022-10-02T20:22:09.089Z,12.47
2022-10-02T20:27:43.830Z,12.37
2022-10-02T20:30:16.805Z,14.50
2022-10-02T20:32:52.279Z,14.97
2022-10-02T20:35:26.900Z,13.93
2022-10-02T20:37:57.827Z,9.97
2022-10-02T20:40:28.720Z,18.33
2022-10-02T20:43:14.028Z,18.03
2022-10-02T20:45:47.942Z,13.63
2022-10-02T20:49:13.249Z,12.40
2022-10-02T20:52:14.538Z,10.20
2022-10-02T20:54:50.354Z,10.03
2022-10-02T20:58:01.838Z,13.90
2022-10-02T21:00:43.729Z,10.23
2022-10-02T21:03:46.595Z,15.57
2022-10-02T21:06:43.696Z,12.63
2022-10-02T21:10:08.639Z,12.17
2022-10-02T21:13:01.761Z,13.57
2022-10-02T21:15:52.885Z,12.43
2022-10-02T21:18:39.573Z,11.60
2022-10-02T21:21:33.582Z,15.20
2022-10-02T21:24:44.054Z,12.50
2022-10-02T21:27:41.674Z,11.20
2022-10-02T21:30:15.257Z,10.10
2022-10-02T21:33:00.261Z,8.17
2022-10-02T21:35:42.064Z,10.33
2022-10-02T21:38:35.724Z,8.30
2022-10-02T21:41:44.186Z,12.13
2022-10-02T21:44:46.362Z,10.57
2022-10-02T21:47:43.642Z,13.27
2022-10-02T21:51:03.879Z,12.53
2022-10-02T21:54:02.462Z,13.07
2022-10-02T21:57:03.543Z,9.27
2022-10-02T22:00:08.095Z,12.70
2022-10-02T22:03:13.542Z,13.80
2022-10-02T22:06:27.890Z,8.80
2022-10-02T22:09:17.172Z,10.73
2022-10-02T22:11:56.200Z,13.57
2022-10-02T22:14:31.429Z,10.93
2022-10-02T22:20:10.981Z,11.97
2022-10-02T22:22:56.086Z,13.43
2022-10-02T22:25:43.088Z,12.50
2022-10-02T22:28:23.533Z,11.27
2022-10-02T22:31:30.652Z,12.20
2022-10-02T22:34:11.492Z,11.07
2022-10-02T22:36:55.516Z,13.20
2022-10-02T22:39:43.454Z,12.50
2022-10-02T22:42:21.502Z,10.03
2022-10-02T22:44:53.818Z,8.70
2022-10-02T22:47:28.809Z,11.87
2022-10-02T22:50:01.160Z,9.93
2022-10-02T22:52:34.529Z,12.70
2022-10-02T22:55:07.786Z,12.00
2022-10-02T22:57:44.176Z,12.37
2022-10-02T23:00:19.782Z,10.33
2022-10-02T23:02:54.113Z,11.27
2022-10-02T23:05:33.066Z,13.83
2022-10-02T23:08:06.098Z,12.60
2022-10-02T23:10:42.890Z,11.50
2022-10-02T23:13:22.932Z,10.13
2022-10-02T23:15:58.102Z,13.30
2022-10-02T23:18:40.766Z,9.70
2022-10-02T23:21:23.993Z,10.80
2022-10-02T23:23:58.524Z,9.33
2022-10-02T23:26:34.358Z,12.00
2022-10-02T23:29:20.152Z,10.33
2022-10-02T23:31:55.266Z,11.00
2022-10-02T23:34:36.002Z,11.17
2022-10-02T23:37:14.422Z,10.37
2022-10-02T23:39:50.635Z,12.53
2022-10-02T23:42:29.574Z,15.33
2022-10-02T23:45:26.003Z,8.63
2022-10-02T23:48:01.069Z,11.77
2022-10-02T23:50:40.894Z,9.90
2022-10-02T23:53:36.123Z,12.13
2022-10-02T23:56:18.878Z,12.33
2022-10-02T23:58:57.025Z,13.30
